< < Back
Terminal Aerodrome Forecast


Current Version              Previous Versions:   1  2  3  4  5  6  7  8  9  

Terminal Aerodrome Forecast

230
FTUS42 KJAX 191120
TAFJAX
TAF
KJAX 191120Z 1912/2012 19003KT 3SM BR FEW003 SCT080 BKN110
     FM191300 19008KT P6SM SCT020 BKN250
     FM191900 22009G15KT P6SM VCTS SCT030CB BKN050 OVC200
      TEMPO 1919/1923 VRB15G25KT 3SM +TSRA BKN025CB OVC050
     FM200100 21006KT P6SM VCSH SCT025 BKN120
     FM200600 19007KT 6SM BR SCT015=



Latest METAR

712
SAUS80 KWBC 191200 CCA
MTRJAX
METAR KJAX 191156Z 12006KT 4SM BR FEW100 BKN150 BKN250 22/22 A2992 RMK
AO2 SLP132 70027 T02170217 10217 20206 58001 $


USA.gov is the U.S. government's official web portal to all federal, state and local government web resources and services.